sensor_id;sensor_type;location;lat;lon;timestamp;temperature;humidity
40654;DHT22;26344;45.532;9.232;2022-07-29T00:00:18;27.50;86.20
40654;DHT22;26344;45.532;9.232;2022-07-29T00:02:43;27.60;86.50
40654;DHT22;26344;45.532;9.232;2022-07-29T00:05:09;27.60;86.60
40654;DHT22;26344;45.532;9.232;2022-07-29T00:07:37;27.60;86.50
40654;DHT22;26344;45.532;9.232;2022-07-29T00:10:03;27.50;86.30
40654;DHT22;26344;45.532;9.232;2022-07-29T00:12:28;30.30;88.10
40654;DHT22;26344;45.532;9.232;2022-07-29T00:14:54;27.70;86.20
40654;DHT22;26344;45.532;9.232;2022-07-29T00:17:20;27.70;85.90
40654;DHT22;26344;45.532;9.232;2022-07-29T00:19:45;27.70;86.30
40654;DHT22;26344;45.532;9.232;2022-07-29T00:22:11;27.60;85.80
40654;DHT22;26344;45.532;9.232;2022-07-29T00:24:36;27.60;87.50
40654;DHT22;26344;45.532;9.232;2022-07-29T00:27:02;27.50;86.60
40654;DHT22;26344;45.532;9.232;2022-07-29T00:29:28;27.50;86.80
40654;DHT22;26344;45.532;9.232;2022-07-29T00:31:53;27.60;86.50
40654;DHT22;26344;45.532;9.232;2022-07-29T00:34:18;27.50;86.80
40654;DHT22;26344;45.532;9.232;2022-07-29T00:37:03;27.40;87.20
40654;DHT22;26344;45.532;9.232;2022-07-29T00:39:28;27.30;88.10
40654;DHT22;26344;45.532;9.232;2022-07-29T00:41:54;27.20;87.00
40654;DHT22;26344;45.532;9.232;2022-07-29T00:44:20;27.20;87.70
40654;DHT22;26344;45.532;9.232;2022-07-29T00:46:45;27.00;86.60
40654;DHT22;26344;45.532;9.232;2022-07-29T00:49:11;27.00;86.70
40654;DHT22;26344;45.532;9.232;2022-07-29T00:51:36;27.00;86.80
40654;DHT22;26344;45.532;9.232;2022-07-29T00:54:02;27.00;87.30
40654;DHT22;26344;45.532;9.232;2022-07-29T00:56:29;26.90;86.60
40654;DHT22;26344;45.532;9.232;2022-07-29T00:58:55;26.40;86.40
40654;DHT22;26344;45.532;9.232;2022-07-29T01:01:21;26.90;86.80
40654;DHT22;26344;45.532;9.232;2022-07-29T01:03:47;26.90;87.00
40654;DHT22;26344;45.532;9.232;2022-07-29T01:06:12;26.90;87.20
40654;DHT22;26344;45.532;9.232;2022-07-29T01:08:38;26.90;87.30
40654;DHT22;26344;45.532;9.232;2022-07-29T01:11:03;26.90;87.50
40654;DHT22;26344;45.532;9.232;2022-07-29T01:13:29;26.90;87.80
40654;DHT22;26344;45.532;9.232;2022-07-29T01:16:01;26.90;87.80
40654;DHT22;26344;45.532;9.232;2022-07-29T01:18:33;27.00;87.60
40654;DHT22;26344;45.532;9.232;2022-07-29T01:34:01;27.10;86.70
40654;DHT22;26344;45.532;9.232;2022-07-29T01:36:40;27.10;86.30
40654;DHT22;26344;45.532;9.232;2022-07-29T01:39:12;27.10;86.20
40654;DHT22;26344;45.532;9.232;2022-07-29T01:41:41;27.10;86.30
40654;DHT22;26344;45.532;9.232;2022-07-29T01:44:12;28.70;87.60
40654;DHT22;26344;45.532;9.232;2022-07-29T01:46:39;27.10;86.50
40654;DHT22;26344;45.532;9.232;2022-07-29T01:49:16;27.10;86.50
40654;DHT22;26344;45.532;9.232;2022-07-29T01:51:47;27.00;86.70
40654;DHT22;26344;45.532;9.232;2022-07-29T01:54:18;27.00;87.00
40654;DHT22;26344;45.532;9.232;2022-07-29T01:56:45;27.10;87.10
40654;DHT22;26344;45.532;9.232;2022-07-29T01:59:11;27.10;87.00
40654;DHT22;26344;45.532;9.232;2022-07-29T02:01:37;27.10;85.90
40654;DHT22;26344;45.532;9.232;2022-07-29T02:04:05;26.90;86.20
40654;DHT22;26344;45.532;9.232;2022-07-29T02:06:32;26.90;86.40
40654;DHT22;26344;45.532;9.232;2022-07-29T02:08:58;26.90;86.40
40654;DHT22;26344;45.532;9.232;2022-07-29T02:11:24;27.00;87.00
40654;DHT22;26344;45.532;9.232;2022-07-29T02:13:50;27.20;86.60
40654;DHT22;26344;45.532;9.232;2022-07-29T02:16:17;26.90;86.80
40654;DHT22;26344;45.532;9.232;2022-07-29T02:18:44;26.90;86.80
40654;DHT22;26344;45.532;9.232;2022-07-29T02:21:10;26.90;86.90
40654;DHT22;26344;45.532;9.232;2022-07-29T02:23:37;26.90;87.10
40654;DHT22;26344;45.532;9.232;2022-07-29T02:26:03;26.90;87.10
40654;DHT22;26344;45.532;9.232;2022-07-29T02:28:29;26.90;87.20
40654;DHT22;26344;45.532;9.232;2022-07-29T02:30:57;26.90;86.50
40654;DHT22;26344;45.532;9.232;2022-07-29T02:33:23;26.80;86.30
40654;DHT22;26344;45.532;9.232;2022-07-29T02:35:50;26.80;86.50
40654;DHT22;26344;45.532;9.232;2022-07-29T02:38:16;26.70;86.30
40654;DHT22;26344;45.532;9.232;2022-07-29T02:41:01;26.60;86.50
40654;DHT22;26344;45.532;9.232;2022-07-29T02:43:28;26.50;86.60
40654;DHT22;26344;45.532;9.232;2022-07-29T02:45:55;26.50;86.40
40654;DHT22;26344;45.532;9.232;2022-07-29T02:48:22;26.50;86.20
40654;DHT22;26344;45.532;9.232;2022-07-29T02:50:54;26.50;85.80
40654;DHT22;26344;45.532;9.232;2022-07-29T02:53:22;26.50;85.80
40654;DHT22;26344;45.532;9.232;2022-07-29T02:55:51;26.50;86.00
40654;DHT22;26344;45.532;9.232;2022-07-29T02:58:30;26.50;85.90
40654;DHT22;26344;45.532;9.232;2022-07-29T03:01:43;26.60;86.00
40654;DHT22;26344;45.532;9.232;2022-07-29T03:03:44;26.50;85.00
40654;DHT22;26344;45.532;9.232;2022-07-29T03:06:10;26.50;85.70
40654;DHT22;26344;45.532;9.232;2022-07-29T03:08:37;26.60;85.90
40654;DHT22;26344;45.532;9.232;2022-07-29T03:11:02;26.60;85.90
40654;DHT22;26344;45.532;9.232;2022-07-29T03:13:29;26.60;85.70
40654;DHT22;26344;45.532;9.232;2022-07-29T03:15:54;26.50;85.70
40654;DHT22;26344;45.532;9.232;2022-07-29T03:18:20;26.50;85.50
40654;DHT22;26344;45.532;9.232;2022-07-29T03:20:46;26.40;85.30
40654;DHT22;26344;45.532;9.232;2022-07-29T03:23:12;26.40;84.80
40654;DHT22;26344;45.532;9.232;2022-07-29T03:25:44;26.30;85.30
40654;DHT22;26344;45.532;9.232;2022-07-29T03:28:10;26.30;85.20
40654;DHT22;26344;45.532;9.232;2022-07-29T03:30:35;26.30;85.40
40654;DHT22;26344;45.532;9.232;2022-07-29T03:33:01;26.40;85.40
40654;DHT22;26344;45.532;9.232;2022-07-29T03:35:26;26.40;85.60
40654;DHT22;26344;45.532;9.232;2022-07-29T03:37:52;26.40;85.40
40654;DHT22;26344;45.532;9.232;2022-07-29T03:40:48;26.50;85.00
40654;DHT22;26344;45.532;9.232;2022-07-29T03:43:03;26.50;84.70
40654;DHT22;26344;45.532;9.232;2022-07-29T03:45:29;26.60;84.20
40654;DHT22;26344;45.532;9.232;2022-07-29T03:47:56;26.70;84.70
40654;DHT22;26344;45.532;9.232;2022-07-29T03:50:24;26.80;84.60
40654;DHT22;26344;45.532;9.232;2022-07-29T03:52:50;26.90;84.40
40654;DHT22;26344;45.532;9.232;2022-07-29T03:55:16;26.80;84.30
40654;DHT22;26344;45.532;9.232;2022-07-29T03:57:42;26.80;83.80
40654;DHT22;26344;45.532;9.232;2022-07-29T04:00:08;26.80;84.50
40654;DHT22;26344;45.532;9.232;2022-07-29T04:02:33;26.70;84.50
40654;DHT22;26344;45.532;9.232;2022-07-29T04:04:59;26.80;84.70
40654;DHT22;26344;45.532;9.232;2022-07-29T04:07:25;26.70;84.30
40654;DHT22;26344;45.532;9.232;2022-07-29T04:09:50;26.60;84.10
40654;DHT22;26344;45.532;9.232;2022-07-29T04:12:16;26.50;84.20
40654;DHT22;26344;45.532;9.232;2022-07-29T04:14:41;26.50;84.60
40654;DHT22;26344;45.532;9.232;2022-07-29T04:17:07;26.50;84.70
40654;DHT22;26344;45.532;9.232;2022-07-29T04:19:32;26.60;84.50
40654;DHT22;26344;45.532;9.232;2022-07-29T04:21:58;26.50;84.50
40654;DHT22;26344;45.532;9.232;2022-07-29T04:24:24;26.50;84.00
40654;DHT22;26344;45.532;9.232;2022-07-29T04:26:50;26.50;83.60
40654;DHT22;26344;45.532;9.232;2022-07-29T04:29:15;26.50;84.20
40654;DHT22;26344;45.532;9.232;2022-07-29T04:31:41;26.50;84.30
40654;DHT22;26344;45.532;9.232;2022-07-29T04:34:07;26.50;84.20
40654;DHT22;26344;45.532;9.232;2022-07-29T04:36:32;26.50;83.70
40654;DHT22;26344;45.532;9.232;2022-07-29T04:38:58;26.50;84.10
40654;DHT22;26344;45.532;9.232;2022-07-29T04:41:23;26.50;84.20
40654;DHT22;26344;45.532;9.232;2022-07-29T04:43:49;26.50;84.20
40654;DHT22;26344;45.532;9.232;2022-07-29T04:46:14;26.60;84.20
40654;DHT22;26344;45.532;9.232;2022-07-29T04:48:40;26.60;84.10
40654;DHT22;26344;45.532;9.232;2022-07-29T04:51:05;26.70;84.20
40654;DHT22;26344;45.532;9.232;2022-07-29T04:53:31;26.70;84.00
40654;DHT22;26344;45.532;9.232;2022-07-29T04:55:56;26.70;83.40
40654;DHT22;26344;45.532;9.232;2022-07-29T04:58:22;26.80;83.90
40654;DHT22;26344;45.532;9.232;2022-07-29T05:00:49;26.90;83.40
40654;DHT22;26344;45.532;9.232;2022-07-29T05:03:14;26.90;83.70
40654;DHT22;26344;45.532;9.232;2022-07-29T05:05:40;26.90;83.80
40654;DHT22;26344;45.532;9.232;2022-07-29T05:08:06;26.90;83.70
40654;DHT22;26344;45.532;9.232;2022-07-29T05:10:32;27.00;83.40
40654;DHT22;26344;45.532;9.232;2022-07-29T05:12:57;26.90;83.70
40654;DHT22;26344;45.532;9.232;2022-07-29T05:17:49;27.00;86.10
40654;DHT22;26344;45.532;9.232;2022-07-29T05:20:14;26.90;82.70
40654;DHT22;26344;45.532;9.232;2022-07-29T05:22:40;26.90;83.60
40654;DHT22;26344;45.532;9.232;2022-07-29T05:25:05;26.80;83.30
40654;DHT22;26344;45.532;9.232;2022-07-29T05:27:31;26.90;82.80
40654;DHT22;26344;45.532;9.232;2022-07-29T05:29:56;26.90;82.80
40654;DHT22;26344;45.532;9.232;2022-07-29T05:32:22;26.90;82.10
40654;DHT22;26344;45.532;9.232;2022-07-29T05:34:47;27.00;82.60
40654;DHT22;26344;45.532;9.232;2022-07-29T05:37:13;27.00;82.80
40654;DHT22;26344;45.532;9.232;2022-07-29T05:39:39;27.00;85.00
40654;DHT22;26344;45.532;9.232;2022-07-29T05:42:08;27.00;83.20
40654;DHT22;26344;45.532;9.232;2022-07-29T05:47:00;27.00;83.30
40654;DHT22;26344;45.532;9.232;2022-07-29T05:49:25;27.00;83.10
40654;DHT22;26344;45.532;9.232;2022-07-29T05:51:51;27.10;83.60
40654;DHT22;26344;45.532;9.232;2022-07-29T05:54:16;27.10;83.10
40654;DHT22;26344;45.532;9.232;2022-07-29T05:56:42;27.20;83.10
40654;DHT22;26344;45.532;9.232;2022-07-29T05:59:07;27.30;83.90
40654;DHT22;26344;45.532;9.232;2022-07-29T06:01:33;27.40;84.00
40654;DHT22;26344;45.532;9.232;2022-07-29T06:03:58;27.30;83.70
40654;DHT22;26344;45.532;9.232;2022-07-29T06:06:24;27.30;84.90
40654;DHT22;26344;45.532;9.232;2022-07-29T06:08:49;27.30;84.10
40654;DHT22;26344;45.532;9.232;2022-07-29T06:11:15;27.40;84.80
40654;DHT22;26344;45.532;9.232;2022-07-29T06:13:40;27.40;84.00
40654;DHT22;26344;45.532;9.232;2022-07-29T06:16:06;27.50;84.00
40654;DHT22;26344;45.532;9.232;2022-07-29T06:18:32;27.60;84.20
40654;DHT22;26344;45.532;9.232;2022-07-29T06:20:57;27.50;84.20
40654;DHT22;26344;45.532;9.232;2022-07-29T06:23:26;27.50;84.70
40654;DHT22;26344;45.532;9.232;2022-07-29T06:25:51;27.40;84.80
40654;DHT22;26344;45.532;9.232;2022-07-29T06:28:17;27.40;85.10
40654;DHT22;26344;45.532;9.232;2022-07-29T06:30:42;27.50;85.60
40654;DHT22;26344;45.532;9.232;2022-07-29T06:33:08;27.50;85.50
40654;DHT22;26344;45.532;9.232;2022-07-29T06:35:34;27.40;85.50
40654;DHT22;26344;45.532;9.232;2022-07-29T06:38:00;27.40;85.70
40654;DHT22;26344;45.532;9.232;2022-07-29T06:40:26;27.40;85.20
40654;DHT22;26344;45.532;9.232;2022-07-29T06:43:10;27.50;85.20
40654;DHT22;26344;45.532;9.232;2022-07-29T06:45:36;27.40;85.10
40654;DHT22;26344;45.532;9.232;2022-07-29T06:48:01;27.80;85.90
40654;DHT22;26344;45.532;9.232;2022-07-29T06:50:27;27.40;85.50
40654;DHT22;26344;45.532;9.232;2022-07-29T06:52:52;27.40;85.50
40654;DHT22;26344;45.532;9.232;2022-07-29T06:55:18;27.40;85.60
40654;DHT22;26344;45.532;9.232;2022-07-29T06:57:44;27.30;84.80
40654;DHT22;26344;45.532;9.232;2022-07-29T07:00:10;27.50;85.30
40654;DHT22;26344;45.532;9.232;2022-07-29T07:02:36;27.50;85.80
40654;DHT22;26344;45.532;9.232;2022-07-29T07:05:01;27.50;85.00
40654;DHT22;26344;45.532;9.232;2022-07-29T07:07:27;27.50;85.80
40654;DHT22;26344;45.532;9.232;2022-07-29T07:09:52;27.70;86.20
40654;DHT22;26344;45.532;9.232;2022-07-29T07:12:18;27.30;85.90
40654;DHT22;26344;45.532;9.232;2022-07-29T07:14:44;27.60;85.70
40654;DHT22;26344;45.532;9.232;2022-07-29T07:17:09;27.70;85.90
40654;DHT22;26344;45.532;9.232;2022-07-29T07:19:38;27.80;85.50
40654;DHT22;26344;45.532;9.232;2022-07-29T07:22:12;27.80;84.90
40654;DHT22;26344;45.532;9.232;2022-07-29T07:24:38;27.80;84.20
40654;DHT22;26344;45.532;9.232;2022-07-29T07:27:04;27.90;84.00
40654;DHT22;26344;45.532;9.232;2022-07-29T07:29:29;28.00;83.90
40654;DHT22;26344;45.532;9.232;2022-07-29T07:31:55;28.00;84.10
40654;DHT22;26344;45.532;9.232;2022-07-29T07:34:20;28.10;83.60
40654;DHT22;26344;45.532;9.232;2022-07-29T07:36:46;28.00;83.70
40654;DHT22;26344;45.532;9.232;2022-07-29T07:39:11;27.90;83.30
40654;DHT22;26344;45.532;9.232;2022-07-29T07:41:37;28.10;83.30
40654;DHT22;26344;45.532;9.232;2022-07-29T07:44:02;28.20;83.20
40654;DHT22;26344;45.532;9.232;2022-07-29T07:46:28;28.30;83.10
40654;DHT22;26344;45.532;9.232;2022-07-29T07:48:53;28.50;83.50
40654;DHT22;26344;45.532;9.232;2022-07-29T07:51:19;28.70;83.40
40654;DHT22;26344;45.532;9.232;2022-07-29T07:53:45;28.80;83.30
40654;DHT22;26344;45.532;9.232;2022-07-29T07:56:10;28.90;82.80
40654;DHT22;26344;45.532;9.232;2022-07-29T07:58:36;28.90;82.20
40654;DHT22;26344;45.532;9.232;2022-07-29T08:01:01;29.00;81.80
40654;DHT22;26344;45.532;9.232;2022-07-29T08:03:27;29.00;81.60
40654;DHT22;26344;45.532;9.232;2022-07-29T08:05:52;29.00;81.70
40654;DHT22;26344;45.532;9.232;2022-07-29T08:08:19;29.00;79.90
40654;DHT22;26344;45.532;9.232;2022-07-29T08:10:45;28.90;79.60
40654;DHT22;26344;45.532;9.232;2022-07-29T08:13:25;29.10;80.00
40654;DHT22;26344;45.532;9.232;2022-07-29T08:15:53;29.10;79.80
40654;DHT22;26344;45.532;9.232;2022-07-29T08:18:36;29.20;79.10
40654;DHT22;26344;45.532;9.232;2022-07-29T08:21:02;29.30;79.50
40654;DHT22;26344;45.532;9.232;2022-07-29T08:23:28;29.30;78.90
40654;DHT22;26344;45.532;9.232;2022-07-29T08:26:00;29.50;79.20
40654;DHT22;26344;45.532;9.232;2022-07-29T08:28:26;29.50;78.00
40654;DHT22;26344;45.532;9.232;2022-07-29T08:30:51;29.60;78.40
40654;DHT22;26344;45.532;9.232;2022-07-29T08:33:17;29.60;78.30
40654;DHT22;26344;45.532;9.232;2022-07-29T08:35:43;29.70;78.10
40654;DHT22;26344;45.532;9.232;2022-07-29T08:38:08;29.90;78.10
40654;DHT22;26344;45.532;9.232;2022-07-29T08:40:34;30.00;77.70
40654;DHT22;26344;45.532;9.232;2022-07-29T08:43:07;30.20;77.00
40654;DHT22;26344;45.532;9.232;2022-07-29T08:45:46;30.30;75.40
40654;DHT22;26344;45.532;9.232;2022-07-29T08:48:12;30.40;76.00
40654;DHT22;26344;45.532;9.232;2022-07-29T08:50:38;30.40;76.60
40654;DHT22;26344;45.532;9.232;2022-07-29T08:53:04;30.40;76.00
40654;DHT22;26344;45.532;9.232;2022-07-29T08:55:31;30.30;75.50
40654;DHT22;26344;45.532;9.232;2022-07-29T08:57:56;30.30;74.30
40654;DHT22;26344;45.532;9.232;2022-07-29T09:00:22;30.40;74.30
40654;DHT22;26344;45.532;9.232;2022-07-29T09:02:50;30.40;74.00
40654;DHT22;26344;45.532;9.232;2022-07-29T09:05:17;30.80;74.30
40654;DHT22;26344;45.532;9.232;2022-07-29T09:07:42;30.80;74.30
40654;DHT22;26344;45.532;9.232;2022-07-29T09:10:09;31.00;73.10
40654;DHT22;26344;45.532;9.232;2022-07-29T09:12:35;31.10;73.30
40654;DHT22;26344;45.532;9.232;2022-07-29T09:15:00;31.00;72.70
40654;DHT22;26344;45.532;9.232;2022-07-29T09:20:10;31.00;72.80
40654;DHT22;26344;45.532;9.232;2022-07-29T09:22:36;31.20;72.70
40654;DHT22;26344;45.532;9.232;2022-07-29T09:25:02;31.30;72.00
40654;DHT22;26344;45.532;9.232;2022-07-29T09:27:28;31.40;72.40
40654;DHT22;26344;45.532;9.232;2022-07-29T09:32:26;31.50;72.20
40654;DHT22;26344;45.532;9.232;2022-07-29T09:35:13;31.80;71.80
40654;DHT22;26344;45.532;9.232;2022-07-29T09:37:37;32.00;72.10
40654;DHT22;26344;45.532;9.232;2022-07-29T09:40:10;32.20;71.00
40654;DHT22;26344;45.532;9.232;2022-07-29T09:42:36;32.20;70.90
40654;DHT22;26344;45.532;9.232;2022-07-29T09:45:02;32.50;70.90
40654;DHT22;26344;45.532;9.232;2022-07-29T09:47:40;32.60;70.80
40654;DHT22;26344;45.532;9.232;2022-07-29T09:50:05;32.60;70.80
40654;DHT22;26344;45.532;9.232;2022-07-29T09:52:31;32.60;71.50
40654;DHT22;26344;45.532;9.232;2022-07-29T09:55:07;32.70;70.50
40654;DHT22;26344;45.532;9.232;2022-07-29T09:57:34;32.60;71.00
40654;DHT22;26344;45.532;9.232;2022-07-29T10:00:01;32.70;71.20
40654;DHT22;26344;45.532;9.232;2022-07-29T10:02:30;32.60;71.60
40654;DHT22;26344;45.532;9.232;2022-07-29T10:04:56;32.40;70.40
40654;DHT22;26344;45.532;9.232;2022-07-29T10:07:21;32.60;70.50
40654;DHT22;26344;45.532;9.232;2022-07-29T10:09:53;32.90;70.80
40654;DHT22;26344;45.532;9.232;2022-07-29T10:12:22;33.00;70.50
40654;DHT22;26344;45.532;9.232;2022-07-29T10:14:51;33.00;69.90
40654;DHT22;26344;45.532;9.232;2022-07-29T10:17:17;33.00;69.50
40654;DHT22;26344;45.532;9.232;2022-07-29T10:19:43;32.80;69.80
40654;DHT22;26344;45.532;9.232;2022-07-29T10:22:09;32.50;69.30
40654;DHT22;26344;45.532;9.232;2022-07-29T10:24:35;32.40;70.20
40654;DHT22;26344;45.532;9.232;2022-07-29T10:27:04;32.40;70.50
40654;DHT22;26344;45.532;9.232;2022-07-29T10:29:29;32.30;70.10
40654;DHT22;26344;45.532;9.232;2022-07-29T10:42:17;32.40;70.40
40654;DHT22;26344;45.532;9.232;2022-07-29T10:44:43;32.40;70.40
40654;DHT22;26344;45.532;9.232;2022-07-29T10:47:22;32.50;69.90
40654;DHT22;26344;45.532;9.232;2022-07-29T10:50:03;32.50;70.50
40654;DHT22;26344;45.532;9.232;2022-07-29T10:58:11;32.80;71.30
40654;DHT22;26344;45.532;9.232;2022-07-29T11:00:37;33.10;70.40
40654;DHT22;26344;45.532;9.232;2022-07-29T11:03:03;33.10;68.80
40654;DHT22;26344;45.532;9.232;2022-07-29T11:05:29;33.20;69.20
40654;DHT22;26344;45.532;9.232;2022-07-29T11:16:07;33.50;68.30
40654;DHT22;26344;45.532;9.232;2022-07-29T11:18:32;33.50;69.10
40654;DHT22;26344;45.532;9.232;2022-07-29T11:20:59;33.70;68.40
40654;DHT22;26344;45.532;9.232;2022-07-29T11:31:46;34.30;67.00
40654;DHT22;26344;45.532;9.232;2022-07-29T11:34:19;34.30;66.90
40654;DHT22;26344;45.532;9.232;2022-07-29T11:39:28;34.70;66.70
40654;DHT22;26344;45.532;9.232;2022-07-29T11:42:14;32.70;65.50
40654;DHT22;26344;45.532;9.232;2022-07-29T11:47:24;34.90;67.20
40654;DHT22;26344;45.532;9.232;2022-07-29T11:49:50;34.80;67.10
40654;DHT22;26344;45.532;9.232;2022-07-29T11:52:16;34.70;66.80
40654;DHT22;26344;45.532;9.232;2022-07-29T11:54:42;34.30;66.80
40654;DHT22;26344;45.532;9.232;2022-07-29T11:57:08;34.10;66.60
40654;DHT22;26344;45.532;9.232;2022-07-29T11:59:40;33.90;66.90
40654;DHT22;26344;45.532;9.232;2022-07-29T12:02:09;34.00;67.60
40654;DHT22;26344;45.532;9.232;2022-07-29T12:04:48;33.70;67.10
40654;DHT22;26344;45.532;9.232;2022-07-29T12:07:13;33.70;67.80
40654;DHT22;26344;45.532;9.232;2022-07-29T12:09:39;33.80;68.10
40654;DHT22;26344;45.532;9.232;2022-07-29T12:12:06;33.60;67.70
40654;DHT22;26344;45.532;9.232;2022-07-29T12:14:32;33.60;68.60
40654;DHT22;26344;45.532;9.232;2022-07-29T12:16:59;33.40;68.70
40654;DHT22;26344;45.532;9.232;2022-07-29T12:19:26;33.40;68.70
40654;DHT22;26344;45.532;9.232;2022-07-29T12:21:55;33.50;68.80
40654;DHT22;26344;45.532;9.232;2022-07-29T12:24:23;33.50;68.90
40654;DHT22;26344;45.532;9.232;2022-07-29T12:26:53;33.40;68.30
40654;DHT22;26344;45.532;9.232;2022-07-29T12:29:19;33.50;68.70
40654;DHT22;26344;45.532;9.232;2022-07-29T12:31:45;33.70;68.80
40654;DHT22;26344;45.532;9.232;2022-07-29T12:34:12;33.70;68.60
40654;DHT22;26344;45.532;9.232;2022-07-29T12:36:38;33.50;68.30
40654;DHT22;26344;45.532;9.232;2022-07-29T12:39:13;34.40;68.50
40654;DHT22;26344;45.532;9.232;2022-07-29T12:41:38;34.40;67.80
40654;DHT22;26344;45.532;9.232;2022-07-29T12:44:04;34.10;68.20
40654;DHT22;26344;45.532;9.232;2022-07-29T12:46:30;32.10;66.10
40654;DHT22;26344;45.532;9.232;2022-07-29T12:54:33;34.30;67.20
40654;DHT22;26344;45.532;9.232;2022-07-29T12:56:59;31.50;64.70
40654;DHT22;26344;45.532;9.232;2022-07-29T12:59:28;34.60;66.90
40654;DHT22;26344;45.532;9.232;2022-07-29T13:01:56;34.70;67.60
40654;DHT22;26344;45.532;9.232;2022-07-29T13:04:28;34.70;67.30
40654;DHT22;26344;45.532;9.232;2022-07-29T13:06:58;34.80;67.70
40654;DHT22;26344;45.532;9.232;2022-07-29T13:09:23;34.80;67.50
40654;DHT22;26344;45.532;9.232;2022-07-29T13:12:01;34.90;66.90
40654;DHT22;26344;45.532;9.232;2022-07-29T13:14:32;34.90;66.90
40654;DHT22;26344;45.532;9.232;2022-07-29T13:17:06;34.90;67.50
40654;DHT22;26344;45.532;9.232;2022-07-29T13:22:35;34.90;67.20
40654;DHT22;26344;45.532;9.232;2022-07-29T13:25:01;34.30;66.80
40654;DHT22;26344;45.532;9.232;2022-07-29T13:27:28;35.00;67.00
40654;DHT22;26344;45.532;9.232;2022-07-29T13:29:54;35.00;66.60
40654;DHT22;26344;45.532;9.232;2022-07-29T13:32:24;34.80;66.50
40654;DHT22;26344;45.532;9.232;2022-07-29T13:34:51;35.00;66.80
40654;DHT22;26344;45.532;9.232;2022-07-29T13:37:17;35.20;66.70
40654;DHT22;26344;45.532;9.232;2022-07-29T13:39:42;35.30;67.20
40654;DHT22;26344;45.532;9.232;2022-07-29T13:42:08;35.50;67.00
40654;DHT22;26344;45.532;9.232;2022-07-29T13:44:34;35.50;67.20
40654;DHT22;26344;45.532;9.232;2022-07-29T13:46:59;35.40;66.10
40654;DHT22;26344;45.532;9.232;2022-07-29T13:49:25;35.20;66.20
40654;DHT22;26344;45.532;9.232;2022-07-29T13:51:51;35.00;66.30
40654;DHT22;26344;45.532;9.232;2022-07-29T13:54:16;34.80;67.00
40654;DHT22;26344;45.532;9.232;2022-07-29T13:56:42;34.70;67.70
40654;DHT22;26344;45.532;9.232;2022-07-29T14:13:32;34.20;68.10
40654;DHT22;26344;45.532;9.232;2022-07-29T14:15:58;34.00;67.20
40654;DHT22;26344;45.532;9.232;2022-07-29T14:18:23;34.10;67.70
40654;DHT22;26344;45.532;9.232;2022-07-29T14:20:49;34.00;67.70
40654;DHT22;26344;45.532;9.232;2022-07-29T14:23:14;33.90;67.80
40654;DHT22;26344;45.532;9.232;2022-07-29T14:28:36;34.60;68.50
40654;DHT22;26344;45.532;9.232;2022-07-29T14:31:03;33.60;67.40
40654;DHT22;26344;45.532;9.232;2022-07-29T14:33:29;33.50;67.70
40654;DHT22;26344;45.532;9.232;2022-07-29T14:35:54;33.50;67.90
40654;DHT22;26344;45.532;9.232;2022-07-29T14:38:22;33.40;67.80
40654;DHT22;26344;45.532;9.232;2022-07-29T14:40:50;33.50;67.50
40654;DHT22;26344;45.532;9.232;2022-07-29T15:19:57;33.00;67.60
40654;DHT22;26344;45.532;9.232;2022-07-29T15:22:30;32.90;67.50
40654;DHT22;26344;45.532;9.232;2022-07-29T15:24:55;32.80;67.80
40654;DHT22;26344;45.532;9.232;2022-07-29T15:33:27;32.50;68.20
40654;DHT22;26344;45.532;9.232;2022-07-29T15:35:57;32.50;68.40
40654;DHT22;26344;45.532;9.232;2022-07-29T15:38:23;32.50;68.20
40654;DHT22;26344;45.532;9.232;2022-07-29T15:40:48;32.50;68.90
40654;DHT22;26344;45.532;9.232;2022-07-29T15:43:14;32.40;69.20
40654;DHT22;26344;45.532;9.232;2022-07-29T15:45:41;32.10;71.30
40654;DHT22;26344;45.532;9.232;2022-07-29T15:48:30;31.60;76.60
40654;DHT22;26344;45.532;9.232;2022-07-29T15:59:02;29.30;89.50
40654;DHT22;26344;45.532;9.232;2022-07-29T16:01:32;29.30;90.10
40654;DHT22;26344;45.532;9.232;2022-07-29T16:03:57;28.90;90.90
40654;DHT22;26344;45.532;9.232;2022-07-29T16:06:23;28.90;91.20
40654;DHT22;26344;45.532;9.232;2022-07-29T16:08:48;28.60;90.90
40654;DHT22;26344;45.532;9.232;2022-07-29T16:11:14;28.60;91.30
40654;DHT22;26344;45.532;9.232;2022-07-29T16:19:49;28.30;91.80
40654;DHT22;26344;45.532;9.232;2022-07-29T16:22:20;28.30;92.10
40654;DHT22;26344;45.532;9.232;2022-07-29T16:24:48;28.30;92.00
40654;DHT22;26344;45.532;9.232;2022-07-29T16:33:19;27.80;93.00
40654;DHT22;26344;45.532;9.232;2022-07-29T16:35:45;27.40;93.10
40654;DHT22;26344;45.532;9.232;2022-07-29T16:38:10;27.20;94.10
40654;DHT22;26344;45.532;9.232;2022-07-29T16:40:36;26.90;94.40
40654;DHT22;26344;45.532;9.232;2022-07-29T16:43:01;26.80;95.00
40654;DHT22;26344;45.532;9.232;2022-07-29T16:45:27;26.70;95.80
40654;DHT22;26344;45.532;9.232;2022-07-29T16:47:54;26.70;95.20
40654;DHT22;26344;45.532;9.232;2022-07-29T16:50:21;26.70;95.00
40654;DHT22;26344;45.532;9.232;2022-07-29T16:52:47;26.70;95.70
40654;DHT22;26344;45.532;9.232;2022-07-29T16:55:12;26.50;95.90
40654;DHT22;26344;45.532;9.232;2022-07-29T16:57:37;26.30;96.30
40654;DHT22;26344;45.532;9.232;2022-07-29T17:00:04;26.30;96.30
40654;DHT22;26344;45.532;9.232;2022-07-29T17:02:31;26.30;96.40
40654;DHT22;26344;45.532;9.232;2022-07-29T17:04:56;26.20;96.20
40654;DHT22;26344;45.532;9.232;2022-07-29T17:07:23;26.20;96.70
40654;DHT22;26344;45.532;9.232;2022-07-29T17:09:48;26.20;96.40
40654;DHT22;26344;45.532;9.232;2022-07-29T17:12:14;26.20;96.50
40654;DHT22;26344;45.532;9.232;2022-07-29T17:14:39;26.30;97.00
40654;DHT22;26344;45.532;9.232;2022-07-29T17:17:05;26.30;96.80
40654;DHT22;26344;45.532;9.232;2022-07-29T17:19:32;26.40;96.60
40654;DHT22;26344;45.532;9.232;2022-07-29T17:21:59;26.40;96.20
40654;DHT22;26344;45.532;9.232;2022-07-29T17:24:25;26.40;96.30
40654;DHT22;26344;45.532;9.232;2022-07-29T17:26:52;26.30;96.30
40654;DHT22;26344;45.532;9.232;2022-07-29T17:29:18;26.30;96.50
40654;DHT22;26344;45.532;9.232;2022-07-29T17:31:43;26.40;96.80
40654;DHT22;26344;45.532;9.232;2022-07-29T17:34:09;26.20;96.50
40654;DHT22;26344;45.532;9.232;2022-07-29T17:36:34;26.30;96.60
40654;DHT22;26344;45.532;9.232;2022-07-29T17:39:01;26.40;96.60
40654;DHT22;26344;45.532;9.232;2022-07-29T17:54:25;26.40;97.10
40654;DHT22;26344;45.532;9.232;2022-07-29T17:56:51;26.20;97.10
40654;DHT22;26344;45.532;9.232;2022-07-29T17:59:16;26.30;96.70
40654;DHT22;26344;45.532;9.232;2022-07-29T18:01:42;26.40;96.30
40654;DHT22;26344;45.532;9.232;2022-07-29T18:04:08;26.40;96.60
40654;DHT22;26344;45.532;9.232;2022-07-29T18:06:36;26.30;96.90
40654;DHT22;26344;45.532;9.232;2022-07-29T18:09:02;26.40;97.00
40654;DHT22;26344;45.532;9.232;2022-07-29T18:11:28;26.30;97.40